Time;durP1;ratioP1;P1;durP2;ratioP2;P2;SDS_P1;SDS_P2;PMS_P1;PMS_P2;Temp;Humidity;BMP_temperature;BMP_pressure;BME280_temperature;BME280_humidity;BME280_pressure;Samples;Min_cycle;Max_cycle;Signal;HPM_P1;HPM_P2
2023/05/13 00:00:33;;;;;;;;;;;20.80;45.30;;;;;;5133559;27;19907;-54
2023/05/13 00:02:59;;;;;;;;;;;20.70;45.30;;;;;;5124713;27;20752;-55
2023/05/13 00:05:24;;;;;;;;;;;20.70;45.40;;;;;;5132976;27;20477;-54
2023/05/13 00:07:50;;;;;;;;;;;20.70;45.40;;;;;;5133482;27;19971;-54
2023/05/13 00:10:15;;;;;;;;;;;20.70;45.30;;;;;;5133912;27;19942;-54
2023/05/13 00:12:40;;;;;;;;;;;20.70;45.40;;;;;;5127477;27;19918;-54
2023/05/13 00:15:06;;;;;;;;;;;20.70;45.30;;;;;;5121621;27;19915;-54
2023/05/13 00:17:32;;;;;;;;;;;20.70;45.30;;;;;;5116853;27;19911;-54
2023/05/13 00:19:57;;;;;;;;;;;20.70;45.40;;;;;;5133488;27;19908;-53
2023/05/13 00:22:22;;;;;;;;;;;20.60;45.40;;;;;;5132136;27;19919;-54
2023/05/13 00:24:48;;;;;;;;;;;20.70;45.50;;;;;;5132365;27;19996;-54
2023/05/13 00:27:14;;;;;;;;;;;20.70;45.40;;;;;;5131816;27;19923;-54
2023/05/13 00:29:39;;;;;;;;;;;20.60;45.50;;;;;;5132631;27;19920;-54
2023/05/13 00:32:05;;;;;;;;;;;20.60;45.40;;;;;;5112549;27;20010;-54
2023/05/13 00:34:30;;;;;;;;;;;20.60;45.70;;;;;;5131459;27;20664;-53
2023/05/13 00:36:56;;;;;;;;;;;20.60;45.40;;;;;;5130020;27;19911;-54
2023/05/13 00:39:21;;;;;;;;;;;20.60;45.50;;;;;;5131536;27;19915;-54
2023/05/13 00:41:47;;;;;;;;;;;20.60;45.50;;;;;;5129800;27;19915;-54
2023/05/13 00:44:12;;;;;;;;;;;20.60;45.50;;;;;;5120927;27;20345;-54
2023/05/13 00:46:38;;;;;;;;;;;20.60;45.70;;;;;;5101731;27;19919;-54
2023/05/13 00:49:03;;;;;;;;;;;20.60;45.70;;;;;;5131974;27;20391;-53
2023/05/13 00:51:30;;;;;;;;;;;20.60;45.50;;;;;;5128386;28;20006;-54
2023/05/13 00:53:56;;;;;;;;;;;20.60;45.50;;;;;;5131944;28;19920;-54
2023/05/13 00:56:22;;;;;;;;;;;20.60;45.70;;;;;;5113614;28;19957;-53
2023/05/13 00:58:47;;;;;;;;;;;20.50;45.40;;;;;;5132302;28;19943;-54
2023/05/13 01:01:19;;;;;;;;;;;20.60;45.60;;;;;;5130843;28;19911;-53
2023/05/13 01:03:49;;;;;;;;;;;20.60;45.70;;;;;;5096875;28;20283;-54
2023/05/13 01:06:17;;;;;;;;;;;20.60;45.70;;;;;;5135725;27;20288;-54
2023/05/13 01:08:42;;;;;;;;;;;20.50;45.60;;;;;;5118679;27;20265;-54
2023/05/13 01:11:15;;;;;;;;;;;20.50;45.60;;;;;;5133846;27;20001;-54
2023/05/13 01:13:42;;;;;;;;;;;20.50;45.50;;;;;;5111961;27;20448;-54
2023/05/13 01:16:26;;;;;;;;;;;20.50;45.70;;;;;;5122929;27;19911;-54
2023/05/13 01:18:53;;;;;;;;;;;20.50;45.60;;;;;;5136807;27;19947;-54
2023/05/13 01:21:25;;;;;;;;;;;20.50;45.70;;;;;;5118028;27;19961;-54
2023/05/13 01:23:50;;;;;;;;;;;20.40;45.60;;;;;;5131821;27;19911;-53
2023/05/13 01:26:16;;;;;;;;;;;20.50;45.70;;;;;;5133191;27;19911;-53
2023/05/13 01:28:41;;;;;;;;;;;20.50;45.80;;;;;;5130827;27;20379;-53
2023/05/13 01:31:09;;;;;;;;;;;20.50;45.70;;;;;;5112088;28;20280;-53
2023/05/13 01:33:35;;;;;;;;;;;20.50;45.80;;;;;;5133003;27;19911;-53
2023/05/13 01:36:01;;;;;;;;;;;20.40;45.70;;;;;;5116777;27;19938;-53
2023/05/13 01:38:26;;;;;;;;;;;20.40;45.70;;;;;;5136202;27;20006;-53
2023/05/13 01:40:52;;;;;;;;;;;20.50;45.70;;;;;;5114698;27;20002;-53
2023/05/13 01:43:17;;;;;;;;;;;20.40;45.70;;;;;;5125599;27;19931;-53
2023/05/13 01:45:43;;;;;;;;;;;20.40;45.80;;;;;;5131683;27;19924;-53
2023/05/13 01:48:08;;;;;;;;;;;20.40;45.80;;;;;;5118105;27;19955;-53
2023/05/13 01:50:34;;;;;;;;;;;20.40;45.80;;;;;;5132521;27;20384;-53
2023/05/13 01:52:59;;;;;;;;;;;20.40;45.80;;;;;;5123631;27;19912;-53
2023/05/13 01:55:25;;;;;;;;;;;20.40;45.80;;;;;;5120342;27;19915;-53
2023/05/13 01:57:50;;;;;;;;;;;20.40;45.80;;;;;;5129538;27;19915;-53
2023/05/13 02:00:16;;;;;;;;;;;20.40;45.80;;;;;;5135688;27;19947;-53
2023/05/13 02:02:41;;;;;;;;;;;20.40;45.80;;;;;;5135401;27;19924;-53
2023/05/13 02:05:07;;;;;;;;;;;20.40;45.80;;;;;;5136452;27;19908;-54
2023/05/13 02:07:33;;;;;;;;;;;20.40;45.80;;;;;;5134980;27;20014;-54
2023/05/13 02:09:58;;;;;;;;;;;20.40;45.80;;;;;;5129120;27;20283;-54
2023/05/13 02:12:25;;;;;;;;;;;20.40;45.90;;;;;;5122971;27;20481;-54
2023/05/13 02:14:50;;;;;;;;;;;20.40;45.90;;;;;;5126118;27;19919;-54
2023/05/13 02:17:15;;;;;;;;;;;20.30;45.90;;;;;;5134736;27;19907;-54
2023/05/13 02:19:41;;;;;;;;;;;20.30;45.90;;;;;;5134658;27;19918;-54
2023/05/13 02:22:06;;;;;;;;;;;20.30;46.00;;;;;;5135906;27;20006;-54
2023/05/13 02:24:33;;;;;;;;;;;20.30;46.00;;;;;;5132244;27;19919;-54
2023/05/13 02:26:59;;;;;;;;;;;20.30;46.10;;;;;;5135740;27;20376;-54
2023/05/13 02:29:24;;;;;;;;;;;20.30;46.20;;;;;;5132042;27;19968;-54
2023/05/13 02:31:50;;;;;;;;;;;20.30;46.20;;;;;;5117368;27;20379;-54
2023/05/13 02:34:15;;;;;;;;;;;20.30;46.10;;;;;;5134400;27;19956;-54
2023/05/13 02:36:40;;;;;;;;;;;20.30;46.20;;;;;;5135511;27;20002;-54
2023/05/13 02:39:07;;;;;;;;;;;20.30;46.20;;;;;;5114809;27;19911;-54
2023/05/13 02:41:32;;;;;;;;;;;20.30;46.20;;;;;;5134124;27;19950;-54
2023/05/13 02:43:57;;;;;;;;;;;20.30;46.40;;;;;;5129380;27;19959;-54
2023/05/13 02:46:23;;;;;;;;;;;20.20;46.30;;;;;;5135100;27;19907;-54
2023/05/13 02:48:48;;;;;;;;;;;20.20;46.30;;;;;;5134314;27;19911;-54
2023/05/13 02:51:14;;;;;;;;;;;20.20;46.40;;;;;;5131620;27;19915;-54
2023/05/13 02:53:39;;;;;;;;;;;20.20;46.40;;;;;;5125560;27;20410;-54
2023/05/13 02:56:05;;;;;;;;;;;20.20;46.40;;;;;;5120131;27;20328;-54
2023/05/13 02:58:31;;;;;;;;;;;20.20;46.40;;;;;;5111474;27;19912;-54
2023/05/13 03:00:56;;;;;;;;;;;20.20;46.60;;;;;;5135463;27;19915;-54
2023/05/13 03:03:22;;;;;;;;;;;20.20;46.60;;;;;;5134450;27;20248;-54
2023/05/13 03:05:47;;;;;;;;;;;20.20;46.60;;;;;;5135390;27;19947;-54
2023/05/13 03:08:13;;;;;;;;;;;20.20;46.60;;;;;;5094139;28;20401;-54
2023/05/13 03:10:38;;;;;;;;;;;20.20;46.50;;;;;;5123528;27;20309;-54
2023/05/13 03:13:04;;;;;;;;;;;20.20;46.60;;;;;;5130804;27;19911;-54
2023/05/13 03:15:29;;;;;;;;;;;20.20;46.70;;;;;;5120327;27;19919;-53
2023/05/13 03:17:54;;;;;;;;;;;20.20;46.80;;;;;;5129016;27;19916;-54
2023/05/13 03:20:20;;;;;;;;;;;20.20;46.70;;;;;;5131516;27;19951;-54
2023/05/13 03:22:45;;;;;;;;;;;20.20;46.70;;;;;;5133608;27;19915;-54
2023/05/13 03:25:11;;;;;;;;;;;20.10;46.60;;;;;;5133351;27;19911;-54
2023/05/13 03:27:37;;;;;;;;;;;20.10;47.30;;;;;;5114014;27;19915;-55
2023/05/13 03:30:03;;;;;;;;;;;20.10;46.70;;;;;;5130496;27;20018;-54
2023/05/13 03:32:29;;;;;;;;;;;20.10;47.40;;;;;;5113432;27;20383;-55
2023/05/13 03:34:56;;;;;;;;;;;20.10;46.80;;;;;;5131579;27;20386;-54
2023/05/13 03:37:22;;;;;;;;;;;20.10;46.80;;;;;;5112939;27;19912;-55
2023/05/13 03:39:47;;;;;;;;;;;20.10;46.80;;;;;;5098900;27;19969;-54
2023/05/13 03:42:13;;;;;;;;;;;20.10;46.80;;;;;;5131295;27;20010;-54
2023/05/13 03:44:38;;;;;;;;;;;20.10;46.80;;;;;;5115958;27;19912;-54
2023/05/13 03:47:04;;;;;;;;;;;20.10;46.90;;;;;;5118781;27;19915;-54
2023/05/13 03:49:30;;;;;;;;;;;20.00;46.80;;;;;;5133156;27;20426;-55
2023/05/13 03:51:55;;;;;;;;;;;20.10;46.90;;;;;;5125361;27;19998;-54
2023/05/13 03:54:21;;;;;;;;;;;20.10;47.00;;;;;;5114607;27;20319;-54
2023/05/13 03:56:46;;;;;;;;;;;20.10;47.00;;;;;;5103567;27;20287;-54
2023/05/13 03:59:12;;;;;;;;;;;20.10;47.00;;;;;;5129529;27;20006;-54
2023/05/13 04:01:38;;;;;;;;;;;20.10;46.90;;;;;;5132337;27;19922;-54
2023/05/13 04:04:03;;;;;;;;;;;20.00;47.00;;;;;;5129956;27;19946;-55
2023/05/13 04:06:30;;;;;;;;;;;20.00;47.00;;;;;;5132685;27;19912;-55
2023/05/13 04:08:56;;;;;;;;;;;20.00;47.00;;;;;;5115379;27;20316;-55
2023/05/13 04:11:21;;;;;;;;;;;20.10;47.10;;;;;;5113835;27;19911;-55
2023/05/13 04:13:46;;;;;;;;;;;20.00;47.00;;;;;;5127334;27;20006;-55
2023/05/13 04:16:13;;;;;;;;;;;20.00;47.10;;;;;;5116678;27;19915;-55
2023/05/13 04:18:38;;;;;;;;;;;20.00;47.00;;;;;;5122461;27;19968;-55
2023/05/13 04:21:07;;;;;;;;;;;20.00;47.20;;;;;;5127123;27;20023;-55
2023/05/13 04:23:32;;;;;;;;;;;20.00;47.10;;;;;;5132196;27;20002;-54
2023/05/13 04:25:57;;;;;;;;;;;19.90;47.10;;;;;;5133125;27;20481;-55
2023/05/13 04:28:23;;;;;;;;;;;20.00;47.30;;;;;;5111637;27;19935;-55
2023/05/13 04:30:48;;;;;;;;;;;19.90;47.10;;;;;;5130270;27;20284;-54
2023/05/13 04:33:14;;;;;;;;;;;19.90;47.10;;;;;;5131451;27;19939;-55
2023/05/13 04:35:39;;;;;;;;;;;19.90;47.10;;;;;;5133113;27;19908;-55
2023/05/13 04:38:05;;;;;;;;;;;19.90;47.20;;;;;;5128922;27;20005;-54
2023/05/13 04:40:30;;;;;;;;;;;20.00;47.20;;;;;;5129205;27;19911;-54
2023/05/13 04:42:56;;;;;;;;;;;19.90;47.20;;;;;;5109450;27;20645;-54
2023/05/13 04:45:22;;;;;;;;;;;19.90;47.20;;;;;;5121886;27;20321;-54
2023/05/13 04:47:48;;;;;;;;;;;19.90;47.30;;;;;;5131489;27;19919;-54
2023/05/13 04:50:13;;;;;;;;;;;19.90;47.20;;;;;;5131381;27;20315;-54
2023/05/13 04:52:41;;;;;;;;;;;19.90;47.20;;;;;;5123114;28;19907;-54
2023/05/13 04:55:10;;;;;;;;;;;19.90;47.20;;;;;;5132411;27;19914;-54
2023/05/13 04:57:35;;;;;;;;;;;19.90;47.20;;;;;;5125844;28;19927;-54
2023/05/13 05:00:01;;;;;;;;;;;19.90;47.20;;;;;;5130181;28;19915;-54
2023/05/13 05:02:28;;;;;;;;;;;19.90;47.20;;;;;;5091836;28;20010;-54
2023/05/13 05:04:54;;;;;;;;;;;20.00;47.30;;;;;;5129749;28;19912;-54
2023/05/13 05:07:20;;;;;;;;;;;19.90;47.30;;;;;;5113285;28;19915;-54
2023/05/13 05:09:45;;;;;;;;;;;19.90;47.30;;;;;;5133019;28;20351;-54
2023/05/13 05:12:11;;;;;;;;;;;19.90;47.30;;;;;;5121068;28;20367;-54
2023/05/13 05:14:37;;;;;;;;;;;19.90;47.90;;;;;;5123046;28;20014;-54
2023/05/13 05:17:03;;;;;;;;;;;19.90;47.30;;;;;;5117987;28;19986;-54
2023/05/13 05:19:28;;;;;;;;;;;19.90;47.20;;;;;;5121825;28;19954;-54
2023/05/13 05:21:54;;;;;;;;;;;19.90;47.20;;;;;;5130480;28;19947;-54
2023/05/13 05:24:19;;;;;;;;;;;19.80;47.20;;;;;;5130355;28;19926;-54
2023/05/13 05:26:45;;;;;;;;;;;19.90;47.30;;;;;;5126123;28;21947;-54
2023/05/13 05:29:10;;;;;;;;;;;19.90;47.40;;;;;;5126743;28;20431;-54
2023/05/13 05:31:36;;;;;;;;;;;19.90;47.30;;;;;;5126311;28;19981;-54
2023/05/13 05:34:01;;;;;;;;;;;19.90;47.40;;;;;;5127536;28;19922;-54
2023/05/13 05:36:30;;;;;;;;;;;19.90;47.40;;;;;;5131912;28;19998;-54
2023/05/13 05:38:55;;;;;;;;;;;19.90;47.30;;;;;;5114486;28;20009;-54
2023/05/13 05:41:21;;;;;;;;;;;19.90;47.30;;;;;;5131712;28;20002;-54
2023/05/13 05:43:46;;;;;;;;;;;19.90;47.40;;;;;;5120330;28;19969;-54
2023/05/13 05:46:12;;;;;;;;;;;19.90;47.40;;;;;;5120376;28;20644;-54
2023/05/13 05:48:37;;;;;;;;;;;19.90;47.30;;;;;;5130030;28;19923;-54
2023/05/13 05:51:03;;;;;;;;;;;19.90;47.30;;;;;;5132511;27;19961;-54
2023/05/13 05:53:28;;;;;;;;;;;19.90;47.30;;;;;;5108641;27;20011;-54
2023/05/13 05:55:54;;;;;;;;;;;19.90;47.30;;;;;;5113586;27;19916;-54
2023/05/13 05:58:19;;;;;;;;;;;19.90;47.30;;;;;;5127196;27;20022;-55
2023/05/13 06:00:45;;;;;;;;;;;19.90;47.40;;;;;;5127795;27;19980;-54
2023/05/13 06:03:10;;;;;;;;;;;19.90;47.30;;;;;;5110861;27;19918;-54
2023/05/13 06:05:36;;;;;;;;;;;19.90;47.40;;;;;;5130797;27;20341;-54
2023/05/13 06:08:02;;;;;;;;;;;19.80;47.30;;;;;;5123477;27;19919;-54
2023/05/13 06:10:27;;;;;;;;;;;19.90;47.30;;;;;;5130224;27;19972;-54
2023/05/13 06:12:53;;;;;;;;;;;19.90;47.30;;;;;;5126083;27;20338;-54
2023/05/13 06:15:18;;;;;;;;;;;19.90;47.10;;;;;;5126726;27;20329;-55
2023/05/13 06:17:44;;;;;;;;;;;19.90;47.10;;;;;;5132256;27;19998;-54
2023/05/13 06:20:09;;;;;;;;;;;19.90;47.20;;;;;;5131535;27;19941;-54
2023/05/13 06:22:35;;;;;;;;;;;19.90;47.10;;;;;;5131475;27;20276;-54
2023/05/13 06:25:00;;;;;;;;;;;19.90;47.00;;;;;;5135250;27;19911;-54
2023/05/13 06:27:26;;;;;;;;;;;20.00;47.00;;;;;;5132484;27;19923;-54
2023/05/13 06:29:51;;;;;;;;;;;19.90;47.00;;;;;;5134214;27;19911;-54
2023/05/13 06:32:17;;;;;;;;;;;19.90;47.00;;;;;;5134386;27;20018;-54
2023/05/13 06:34:45;;;;;;;;;;;19.90;47.00;;;;;;5133029;27;19930;-54
2023/05/13 06:37:12;;;;;;;;;;;19.90;46.90;;;;;;5116351;27;19912;-54
2023/05/13 06:39:38;;;;;;;;;;;19.90;46.90;;;;;;5134732;27;19915;-54
2023/05/13 06:42:03;;;;;;;;;;;19.90;46.90;;;;;;5113364;27;20395;-54
2023/05/13 06:44:29;;;;;;;;;;;19.90;46.80;;;;;;5128115;27;19912;-54
2023/05/13 06:46:54;;;;;;;;;;;19.90;46.90;;;;;;5125315;27;19920;-54
2023/05/13 06:49:20;;;;;;;;;;;19.90;46.90;;;;;;5133119;27;19958;-54
2023/05/13 06:51:47;;;;;;;;;;;19.90;46.90;;;;;;5114666;27;20355;-54
2023/05/13 06:54:12;;;;;;;;;;;19.90;47.60;;;;;;5099867;27;20010;-55
2023/05/13 06:56:38;;;;;;;;;;;19.90;46.90;;;;;;5123101;27;20415;-54
2023/05/13 06:59:03;;;;;;;;;;;19.90;46.90;;;;;;5130433;27;19918;-54
2023/05/13 07:01:29;;;;;;;;;;;19.90;46.90;;;;;;5125672;27;19915;-54
2023/05/13 07:03:54;;;;;;;;;;;19.90;46.90;;;;;;5127171;27;19915;-54
2023/05/13 07:06:20;;;;;;;;;;;19.90;46.70;;;;;;5132754;27;19911;-54
2023/05/13 07:08:45;;;;;;;;;;;20.00;46.90;;;;;;5133268;27;19924;-54
2023/05/13 07:11:11;;;;;;;;;;;19.90;46.80;;;;;;5124679;27;20375;-54
2023/05/13 07:13:36;;;;;;;;;;;20.00;46.80;;;;;;5131116;27;20329;-54
2023/05/13 07:16:02;;;;;;;;;;;20.00;46.80;;;;;;5116577;27;19922;-54
2023/05/13 07:18:28;;;;;;;;;;;20.00;46.70;;;;;;5134287;27;19911;-54
2023/05/13 07:20:55;;;;;;;;;;;20.00;46.70;;;;;;5124003;27;19916;-54
2023/05/13 07:23:20;;;;;;;;;;;20.00;46.70;;;;;;5131789;27;19915;-54
2023/05/13 07:25:46;;;;;;;;;;;20.00;46.70;;;;;;5133344;27;19911;-54
2023/05/13 07:28:11;;;;;;;;;;;20.00;46.70;;;;;;5092943;28;19915;-54
2023/05/13 07:30:38;;;;;;;;;;;19.90;46.70;;;;;;5112624;27;19922;-53
2023/05/13 07:33:04;;;;;;;;;;;20.00;47.40;;;;;;5133151;27;19912;-54
2023/05/13 07:35:30;;;;;;;;;;;20.00;46.80;;;;;;5114034;27;19919;-54
2023/05/13 07:37:55;;;;;;;;;;;20.00;46.90;;;;;;5109139;27;19959;-54
2023/05/13 07:40:21;;;;;;;;;;;20.00;46.60;;;;;;5125249;27;20054;-54
2023/05/13 07:42:46;;;;;;;;;;;20.00;46.60;;;;;;5124535;27;19924;-54
2023/05/13 07:45:12;;;;;;;;;;;20.00;46.60;;;;;;5113713;27;19912;-53
2023/05/13 07:47:37;;;;;;;;;;;20.00;46.60;;;;;;5127475;27;19926;-53
2023/05/13 07:50:03;;;;;;;;;;;20.00;46.60;;;;;;5129242;27;19908;-53
2023/05/13 07:52:28;;;;;;;;;;;20.00;46.40;;;;;;5107387;28;20397;-54
2023/05/13 07:54:54;;;;;;;;;;;20.10;46.40;;;;;;5124427;27;19911;-54
2023/05/13 07:57:19;;;;;;;;;;;20.10;46.40;;;;;;5104919;27;19915;-54
2023/05/13 07:59:45;;;;;;;;;;;20.10;46.40;;;;;;5124700;27;20427;-53
2023/05/13 08:02:10;;;;;;;;;;;20.10;46.30;;;;;;5109162;27;19925;-53
2023/05/13 08:04:36;;;;;;;;;;;20.10;46.30;;;;;;5110501;27;19919;-54
2023/05/13 08:07:01;;;;;;;;;;;20.10;46.20;;;;;;5129652;27;19969;-54
2023/05/13 08:09:27;;;;;;;;;;;20.20;46.30;;;;;;5130919;27;19911;-54
2023/05/13 08:11:53;;;;;;;;;;;20.20;46.10;;;;;;5122856;27;19947;-54
2023/05/13 08:14:18;;;;;;;;;;;20.30;46.30;;;;;;5129147;27;19984;-53
2023/05/13 08:16:44;;;;;;;;;;;20.30;46.10;;;;;;5130369;27;19924;-53
2023/05/13 08:19:09;;;;;;;;;;;20.30;46.10;;;;;;5127950;27;19912;-53
2023/05/13 08:21:35;;;;;;;;;;;20.30;46.10;;;;;;5128392;27;19915;-54
2023/05/13 08:24:00;;;;;;;;;;;20.30;45.80;;;;;;5130918;27;19912;-54
2023/05/13 08:26:25;;;;;;;;;;;20.40;46.10;;;;;;5130055;27;19919;-54
2023/05/13 08:28:51;;;;;;;;;;;20.40;45.80;;;;;;5128400;27;19965;-53
2023/05/13 08:31:16;;;;;;;;;;;20.50;45.90;;;;;;5112697;27;19919;-54
2023/05/13 08:33:44;;;;;;;;;;;20.50;45.60;;;;;;5128943;27;19915;-53
2023/05/13 08:36:10;;;;;;;;;;;20.50;45.40;;;;;;5111908;28;19915;-53
2023/05/13 08:38:35;;;;;;;;;;;20.60;45.20;;;;;;5129412;27;19960;-53
2023/05/13 08:41:07;;;;;;;;;;;20.60;44.90;;;;;;5107253;27;19911;-53
2023/05/13 08:43:33;;;;;;;;;;;20.60;44.90;;;;;;5130570;27;20687;-53
2023/05/13 08:46:00;;;;;;;;;;;20.70;45.00;;;;;;5133330;27;19961;-53
2023/05/13 08:48:26;;;;;;;;;;;20.60;44.90;;;;;;5106355;28;19931;-53
2023/05/13 08:50:51;;;;;;;;;;;20.70;45.00;;;;;;5093146;28;19933;-52
2023/05/13 08:53:17;;;;;;;;;;;20.70;45.00;;;;;;5105586;28;20007;-53
2023/05/13 08:55:43;;;;;;;;;;;20.60;44.90;;;;;;5111644;28;19915;-52
2023/05/13 08:58:08;;;;;;;;;;;20.70;45.00;;;;;;5110068;28;19923;-52
2023/05/13 09:00:34;;;;;;;;;;;20.70;45.00;;;;;;5130291;28;19923;-53
2023/05/13 09:03:00;;;;;;;;;;;20.70;45.00;;;;;;5129056;28;19912;-52
2023/05/13 09:05:25;;;;;;;;;;;20.70;44.70;;;;;;5128457;28;19916;-53
2023/05/13 09:07:51;;;;;;;;;;;20.80;45.70;;;;;;5129128;28;20353;-53
2023/05/13 09:10:16;;;;;;;;;;;20.70;45.00;;;;;;5127899;28;19911;-53
2023/05/13 09:12:42;;;;;;;;;;;20.70;45.00;;;;;;5103767;28;19915;-53
2023/05/13 09:15:08;;;;;;;;;;;20.80;45.80;;;;;;5129487;28;20050;-54
2023/05/13 09:17:37;;;;;;;;;;;20.80;44.90;;;;;;5123694;28;19915;-51
2023/05/13 09:20:06;;;;;;;;;;;20.90;44.80;;;;;;5130944;28;19918;-53
2023/05/13 09:22:32;;;;;;;;;;;20.80;45.00;;;;;;5126807;28;19951;-53
2023/05/13 09:24:57;;;;;;;;;;;20.80;44.90;;;;;;5124080;28;20016;-52
2023/05/13 09:27:30;;;;;;;;;;;20.90;45.20;;;;;;5124703;27;19972;-53
2023/05/13 09:29:59;;;;;;;;;;;20.90;44.70;;;;;;5113015;27;20014;-53
2023/05/13 09:32:25;;;;;;;;;;;21.00;44.30;;;;;;5133394;27;20385;-53
2023/05/13 09:34:50;;;;;;;;;;;21.20;43.30;;;;;;5136053;27;19911;-53
2023/05/13 09:37:16;;;;;;;;;;;21.30;43.70;;;;;;5116184;27;19915;-52
2023/05/13 09:39:42;;;;;;;;;;;21.20;44.00;;;;;;5133001;27;19933;-52
2023/05/13 09:42:16;;;;;;;;;;;21.10;44.50;;;;;;5136350;27;20371;-53
2023/05/13 09:44:43;;;;;;;;;;;21.10;44.40;;;;;;5134411;27;19915;-53
2023/05/13 09:47:14;;;;;;;;;;;21.00;44.00;;;;;;5132558;27;20295;-53
2023/05/13 09:49:40;;;;;;;;;;;21.10;43.80;;;;;;5132400;27;19911;-53
2023/05/13 09:52:10;;;;;;;;;;;21.20;43.60;;;;;;5134622;27;19934;-52
2023/05/13 09:54:35;;;;;;;;;;;21.40;43.30;;;;;;5111475;27;19912;-52
2023/05/13 09:57:01;;;;;;;;;;;21.40;43.80;;;;;;5108508;27;20420;-53
2023/05/13 09:59:26;;;;;;;;;;;21.40;43.60;;;;;;5107964;27;19918;-53
2023/05/13 10:01:53;;;;;;;;;;;21.40;43.00;;;;;;5131969;27;19915;-54
2023/05/13 10:04:18;;;;;;;;;;;21.50;43.20;;;;;;5132773;27;19998;-54
2023/05/13 10:06:44;;;;;;;;;;;21.50;43.40;;;;;;5130690;27;20010;-54
2023/05/13 10:09:10;;;;;;;;;;;21.60;43.40;;;;;;5134175;27;19919;-53
2023/05/13 10:11:35;;;;;;;;;;;21.50;43.40;;;;;;5113894;27;19918;-54
2023/05/13 10:14:04;;;;;;;;;;;21.50;43.30;;;;;;5130210;27;19964;-54
2023/05/13 10:16:30;;;;;;;;;;;21.50;43.30;;;;;;5113881;27;19918;-54
2023/05/13 10:18:57;;;;;;;;;;;21.50;42.30;;;;;;5132645;27;20283;-54
2023/05/13 10:21:23;;;;;;;;;;;21.60;42.20;;;;;;5130360;27;20292;-55
2023/05/13 10:23:50;;;;;;;;;;;21.70;42.10;;;;;;5129630;27;19925;-54
2023/05/13 10:26:16;;;;;;;;;;;21.70;42.10;;;;;;5108369;27;19926;-54
2023/05/13 10:28:41;;;;;;;;;;;21.70;42.10;;;;;;5126413;27;19923;-54
2023/05/13 10:31:07;;;;;;;;;;;21.80;41.00;;;;;;5110890;27;20010;-54
2023/05/13 10:33:32;;;;;;;;;;;21.80;40.80;;;;;;5131889;27;19911;-54
2023/05/13 10:36:18;;;;;;;;;;;21.80;40.80;;;;;;5127702;27;19922;-54
2023/05/13 10:39:03;;;;;;;;;;;21.80;40.50;;;;;;5120134;27;20380;-54
2023/05/13 10:41:48;;;;;;;;;;;21.80;40.70;;;;;;5130820;27;20001;-54
2023/05/13 10:44:13;;;;;;;;;;;21.80;40.70;;;;;;5126925;27;19923;-54
2023/05/13 10:46:38;;;;;;;;;;;21.80;39.80;;;;;;5111700;27;19919;-55
2023/05/13 10:49:04;;;;;;;;;;;21.90;39.50;;;;;;5106389;27;19911;-55
2023/05/13 10:51:31;;;;;;;;;;;21.90;39.60;;;;;;5121972;27;19911;-54
2023/05/13 10:53:59;;;;;;;;;;;22.00;39.30;;;;;;5127113;27;19941;-53
2023/05/13 10:56:25;;;;;;;;;;;22.10;40.20;;;;;;5130607;27;19918;-53
2023/05/13 10:58:57;;;;;;;;;;;22.10;39.50;;;;;;5118201;27;19958;-54
2023/05/13 11:01:29;;;;;;;;;;;22.10;39.40;;;;;;5125343;27;19950;-54
2023/05/13 11:03:55;;;;;;;;;;;22.10;39.10;;;;;;5122734;27;19999;-54
2023/05/13 11:06:22;;;;;;;;;;;22.00;39.90;;;;;;5129791;27;19912;-54
2023/05/13 11:08:50;;;;;;;;;;;21.90;38.30;;;;;;5122833;27;20090;-54
2023/05/13 11:11:19;;;;;;;;;;;22.10;38.10;;;;;;5115372;27;19951;-53
2023/05/13 11:13:44;;;;;;;;;;;22.00;38.20;;;;;;5130283;27;20345;-54
2023/05/13 11:16:11;;;;;;;;;;;22.10;38.80;;;;;;5133417;27;19908;-53
2023/05/13 11:18:37;;;;;;;;;;;22.10;38.20;;;;;;5128724;27;20011;-54
2023/05/13 11:21:03;;;;;;;;;;;22.20;38.00;;;;;;5107790;27;20006;-53
2023/05/13 11:23:28;;;;;;;;;;;22.20;38.10;;;;;;5132546;27;19912;-54
2023/05/13 11:26:15;;;;;;;;;;;22.30;38.00;;;;;;5132860;27;19921;-54
2023/05/13 11:28:59;;;;;;;;;;;22.30;38.30;;;;;;5108430;28;20329;-54
2023/05/13 11:31:25;;;;;;;;;;;22.30;37.50;;;;;;5130898;27;19907;-53
2023/05/13 11:34:09;;;;;;;;;;;22.30;37.80;;;;;;5131245;27;20006;-53
2023/05/13 11:36:35;;;;;;;;;;;22.30;37.00;;;;;;5131264;27;19918;-53
2023/05/13 11:39:05;;;;;;;;;;;22.30;37.40;;;;;;5112883;27;19986;-53
2023/05/13 11:41:33;;;;;;;;;;;22.30;37.50;;;;;;5115917;27;20233;-54
2023/05/13 11:44:01;;;;;;;;;;;22.30;37.10;;;;;;5122529;27;20291;-54
2023/05/13 11:46:27;;;;;;;;;;;22.40;37.30;;;;;;5134182;27;19914;-52
2023/05/13 11:48:52;;;;;;;;;;;22.50;37.80;;;;;;5134202;27;20018;-53
2023/05/13 11:51:18;;;;;;;;;;;22.40;37.90;;;;;;5113670;27;19915;-54
2023/05/13 11:53:43;;;;;;;;;;;22.50;36.90;;;;;;5133914;27;20367;-53
2023/05/13 11:56:12;;;;;;;;;;;22.60;36.70;;;;;;5114501;27;20367;-54
2023/05/13 11:58:37;;;;;;;;;;;22.70;36.30;;;;;;5126028;27;20002;-53
2023/05/13 12:01:03;;;;;;;;;;;22.60;37.70;;;;;;5131612;27;20002;-53
2023/05/13 12:03:28;;;;;;;;;;;22.60;36.80;;;;;;5133268;27;19908;-54
2023/05/13 12:06:04;;;;;;;;;;;22.60;36.90;;;;;;5115155;27;19908;-54
2023/05/13 12:08:30;;;;;;;;;;;22.50;38.30;;;;;;5114721;27;20499;-53
2023/05/13 12:10:57;;;;;;;;;;;22.40;37.60;;;;;;5130470;27;19915;-54
2023/05/13 12:13:22;;;;;;;;;;;22.40;37.50;;;;;;5114483;27;19919;-53
2023/05/13 12:15:48;;;;;;;;;;;22.40;36.20;;;;;;5114955;27;19911;-53
2023/05/13 12:18:13;;;;;;;;;;;22.30;37.40;;;;;;5133724;27;19990;-54
2023/05/13 12:20:39;;;;;;;;;;;22.30;38.00;;;;;;5114953;27;19920;-53
2023/05/13 12:23:05;;;;;;;;;;;22.20;37.50;;;;;;5127920;27;19911;-53
2023/05/13 12:25:34;;;;;;;;;;;22.20;37.20;;;;;;5133252;27;20041;-54
2023/05/13 12:28:05;;;;;;;;;;;22.10;37.20;;;;;;5127369;27;19918;-54
2023/05/13 12:30:34;;;;;;;;;;;22.10;37.10;;;;;;5124021;27;19926;-54
2023/05/13 12:32:59;;;;;;;;;;;22.20;37.00;;;;;;5122363;27;19916;-54
2023/05/13 12:35:25;;;;;;;;;;;22.30;36.10;;;;;;5128373;27;19930;-53
2023/05/13 12:38:00;;;;;;;;;;;22.40;36.80;;;;;;5114787;27;19907;-54
2023/05/13 12:40:25;;;;;;;;;;;22.50;37.10;;;;;;5115038;27;19907;-52
2023/05/13 12:42:51;;;;;;;;;;;22.60;36.40;;;;;;5129035;27;19942;-53
2023/05/13 12:45:16;;;;;;;;;;;22.50;35.50;;;;;;5133378;27;19926;-53
2023/05/13 12:47:48;;;;;;;;;;;22.60;36.70;;;;;;5133095;27;20271;-52
2023/05/13 12:50:14;;;;;;;;;;;22.60;36.10;;;;;;5130695;27;19977;-53
2023/05/13 12:52:40;;;;;;;;;;;22.60;37.20;;;;;;5106221;28;19951;-53
2023/05/13 12:55:05;;;;;;;;;;;22.60;35.70;;;;;;5103087;28;20394;-53
2023/05/13 12:57:31;;;;;;;;;;;22.40;35.90;;;;;;5129861;28;19968;-53
2023/05/13 12:59:56;;;;;;;;;;;22.30;36.40;;;;;;5120157;27;19954;-53
2023/05/13 13:02:22;;;;;;;;;;;22.20;36.70;;;;;;5123535;28;19964;-53
2023/05/13 13:04:47;;;;;;;;;;;22.20;36.20;;;;;;5128323;28;20401;-53
2023/05/13 13:07:13;;;;;;;;;;;22.30;36.40;;;;;;5109904;28;20010;-53
2023/05/13 13:09:38;;;;;;;;;;;22.20;35.40;;;;;;5131990;28;19911;-53
2023/05/13 13:12:04;;;;;;;;;;;22.30;36.10;;;;;;5127804;28;19920;-53
2023/05/13 13:14:30;;;;;;;;;;;22.20;35.50;;;;;;5131931;28;20291;-53
2023/05/13 13:16:55;;;;;;;;;;;22.30;35.70;;;;;;5132811;28;20151;-53
2023/05/13 13:19:20;;;;;;;;;;;22.30;35.40;;;;;;5114220;28;20359;-53
2023/05/13 13:21:46;;;;;;;;;;;22.40;35.80;;;;;;5131012;28;20366;-53
2023/05/13 13:24:11;;;;;;;;;;;22.40;35.10;;;;;;5132693;28;20371;-53
2023/05/13 13:26:37;;;;;;;;;;;22.50;34.90;;;;;;5132776;28;20283;-53
2023/05/13 13:29:02;;;;;;;;;;;22.60;34.40;;;;;;5101043;28;20299;-53
2023/05/13 13:31:28;;;;;;;;;;;22.70;35.10;;;;;;5113445;28;20335;-53
2023/05/13 13:33:53;;;;;;;;;;;22.70;34.50;;;;;;5132589;28;19915;-53
2023/05/13 13:36:19;;;;;;;;;;;22.70;33.70;;;;;;5132798;28;20283;-53
2023/05/13 13:38:44;;;;;;;;;;;22.90;32.90;;;;;;5132555;28;19933;-53
2023/05/13 13:41:10;;;;;;;;;;;23.00;33.70;;;;;;5132789;28;19907;-53
2023/05/13 13:43:36;;;;;;;;;;;23.00;33.40;;;;;;5128682;28;19927;-53
2023/05/13 13:46:01;;;;;;;;;;;23.00;33.00;;;;;;5132054;28;19908;-53
2023/05/13 13:48:26;;;;;;;;;;;22.90;33.60;;;;;;5132367;28;19911;-53
2023/05/13 13:50:52;;;;;;;;;;;22.70;34.40;;;;;;5126568;28;20698;-53
2023/05/13 13:53:18;;;;;;;;;;;22.60;34.20;;;;;;5128229;28;19958;-53
2023/05/13 13:55:43;;;;;;;;;;;22.60;34.60;;;;;;5132906;28;20361;-53
2023/05/13 13:58:09;;;;;;;;;;;22.60;33.90;;;;;;5110551;28;19912;-53
2023/05/13 14:00:34;;;;;;;;;;;22.70;34.30;;;;;;5132557;28;19907;-53
2023/05/13 14:03:01;;;;;;;;;;;22.70;33.50;;;;;;5132271;28;19907;-53
2023/05/13 14:05:27;;;;;;;;;;;22.70;32.60;;;;;;5132837;28;20467;-53
2023/05/13 14:07:54;;;;;;;;;;;22.80;32.60;;;;;;5129970;28;20017;-53
2023/05/13 14:10:19;;;;;;;;;;;22.90;33.50;;;;;;5132528;28;19907;-53